Condiciones actuales en los principales Aeropuertos de España-Datos Metar

 

LEAL - Alicante
Actualización: 22/01/2022 12:30
Lluvia débil, Cubierto
Lluvia débil, Cubierto
 Viento del NE
Viento: NE 9 km/h
Temperatura: 12°C
Rocío: 6°C
Humedad: 67%
Barómetro: 1030 hPa
Resumen: Light Rain
Nubosidad: Cubierto
Visibilidad: 10 km
Cloud details: Few Clouds 853 m
Cubierto 1524 m
2022/01/22 11:30 LEAL 221130Z 04005KT 010V100 9999 -RA FEW028 OVC050 12/06 Q1030 NOSIG
LEAB - Albacete
Actualización: 22/01/2022 12:30
Partly Cloudy
Partly Cloudy
 Viento del SE
Viento: SE 13 km/h
Temperatura: 8°C
Wind Chill: 6°C
Rocío: 3°C
Humedad: 71%
Barómetro: 1029 hPa
Nubosidad: Partly Cloudy
Visibilidad: 10 km
Cloud details: Partly Cloudy 579 m
2022/01/22 11:30 LEAB 221130Z 13007KT 090V190 9999 SCT019 08/03 Q1029 NOSIG
LEAM - Almería
Actualización: 22/01/2022 12:30
Partly Cloudy
Partly Cloudy
 Viento del ENE
Viento: ENE 26 km/h
Temperatura: 15°C
Rocío: 7°C
Humedad: 59%
Barómetro: 1028 hPa
Nubosidad: Partly Cloudy
Visibilidad: 10 km
Cloud details: Few Clouds 914 m
Partly Cloudy 2134 m
2022/01/22 11:30 LEAM 221130Z 06014KT 9999 FEW030 SCT070 15/07 Q1028
 
LEAS - Asturias/Aviles
Actualización: 22/01/2022 12:30
Partly Cloudy
Partly Cloudy
 Viento del E
Viento: E 24 km/h
Temperatura: 9°C
Wind Chill: 6°C
Rocío: 3°C
Humedad: 66%
Barómetro: 1032 hPa
Nubosidad: Partly Cloudy
Visibilidad: 10 km
Cloud details: Few Clouds 792 m
Partly Cloudy 945 m
2022/01/22 11:30 LEAS 221130Z 10013KT 060V150 9999 FEW026 SCT031 09/03 Q1032 NOSIG
LEBZ - Badajoz/Talavera la Real
Actualización: 22/01/2022 12:30
Despejado
Despejado
 Viento del E
Viento: E 20 km/h
Temperatura: 11°C
Rocío: 2°C
Humedad: 54%
Barómetro: 1027 hPa
Resumen: Despejado
Visibilidad: greater than 10 km
2022/01/22 11:30 LEBZ 221130Z 08011KT CAVOK 11/02 Q1027
LEBL - Barcelona
Actualización: 22/01/2022 12:30
Few Clouds
Few Clouds
 Viento del NO
Viento: NO 13 km/h
Temperatura: 8°C
Wind Chill: 6°C
Rocío: -1°C
Humedad: 53%
Barómetro: 1031 hPa
Nubosidad: Few Clouds
Visibilidad: 10 km
Cloud details: Few Clouds 1067 m
2022/01/22 11:30 LEBL 221130Z 32007KT 280V340 9999 FEW035 08/M01 Q1031 NOSIG
 
LEBB - Bilbao
Actualización: 22/01/2022 12:30
Few Clouds
Few Clouds
 Viento del varies
Viento: varies 2 km/h
Temperatura: 7°C
Rocío: 1°C
Humedad: 66%
Barómetro: 1034 hPa
Nubosidad: Few Clouds
Visibilidad: 10 km
Cloud details: Few Clouds 914 m
2022/01/22 11:30 LEBB 221130Z VRB01KT 9999 FEW030 07/01 Q1034 NOSIG
LEBG - Burgos/Villafría
Actualización: 22/01/2022 12:30
Despejado
Despejado
 Viento del NE
Viento: NE 17 km/h
Temperatura: 2°C
Wind Chill: -2°C
Rocío: -3°C
Humedad: 70%
Barómetro: 1029 hPa
Resumen: Despejado
Visibilidad: greater than 10 km
2022/01/22 11:30 LEBG 221130Z 04009KT 020V080 CAVOK 02/M03 Q1029
LEBA - Córdoba
Actualización: 22/01/2022 12:30
Despejado
Despejado
 Viento del ENE
Viento: ENE 20 km/h
Temperatura: 11°C
Rocío: 2°C
Humedad: 54%
Barómetro: 1027 hPa
Resumen: Despejado
Visibilidad: greater than 10 km
2022/01/22 11:30 LEBA 221130Z 06011KT CAVOK 11/02 Q1027
 
LEGE - Gerona
Actualización: 22/01/2022 12:30
Despejado
Despejado
 Viento del S
Viento: S 6 km/h
Temperatura: 9°C
Rocío: 0°C
Humedad: 54%
Barómetro: 1030 hPa
Resumen: Despejado
Visibilidad: greater than 10 km
2022/01/22 11:30 LEGE 221130Z 18003KT 090V250 CAVOK 09/00 Q1030
LEGR - Granada
Actualización: 22/01/2022 12:30
Few Clouds
Few Clouds
 Viento del E
Viento: E 7 km/h
Temperatura: 10°C
Wind Chill: 9°C
Rocío: 3°C
Humedad: 62%
Barómetro: 1027 hPa
Nubosidad: Few Clouds
Visibilidad: 10 km
Cloud details: Few Clouds 1067 m
2022/01/22 11:30 LEGR 221130Z 08004KT 040V120 9999 FEW035 10/03 Q1027
GCHI - Hierro
Actualización: 22/01/2022 12:30
Few Clouds
Few Clouds
 Viento del S
Viento: S 17 km/h
Temperatura: 21°C
Rocío: 14°C
Humedad: 64%
Barómetro: 1017 hPa
Nubosidad: Few Clouds
Visibilidad: 10 km
Cloud details: Few Clouds 914 m
2022/01/22 11:30 GCHI 221130Z 19009KT 150V210 9999 FEW030 21/14 Q1017
 
LEIB - Ibiza
Actualización: 22/01/2022 12:30
Mostly Cloudy
Mostly Cloudy
 Viento del E
Viento: E 11 km/h
Temperatura: 12°C
Rocío: 5°C
Humedad: 63%
Barómetro: 1031 hPa
Nubosidad: Mostly Cloudy
Visibilidad: 10 km
Cloud details: Mostly Cloudy 1067 m
2022/01/22 11:30 LEIB 221130Z 10006KT 070V140 9999 BKN035 12/05 Q1031 NOSIG
LEJR - Jerez de la Frontera
Actualización: 22/01/2022 12:30
Despejado
Despejado
 Viento del O
Viento: O 7 km/h
Temperatura: 16°C
Rocío: 7°C
Humedad: 55%
Barómetro: 1024 hPa
Resumen: Despejado
Visibilidad: greater than 10 km
2022/01/22 11:30 LEJR 221130Z 26004KT 220V290 CAVOK 16/07 Q1024
LECO - A Coruña
Actualización: 22/01/2022 12:30
Despejado
Despejado
 Viento del ESE
Viento: ESE 11 km/h
Temperatura: 9°C
Wind Chill: 7°C
Rocío: 1°C
Humedad: 58%
Barómetro: 1030 hPa
Resumen: Despejado
Visibilidad: greater than 10 km
2022/01/22 11:30 LECO 221130Z 12006KT 080V180 CAVOK 09/01 Q1030 NOSIG
 
GCLA - La Palma
Actualización: 22/01/2022 12:30
Few Clouds
Few Clouds
 Viento del SSE
Viento: SSE 11 km/h
Temperatura: 21°C
Rocío: 16°C
Humedad: 73%
Barómetro: 1016 hPa
Nubosidad: Few Clouds
Visibilidad: 10 km
Cloud details: Few Clouds 914 m
2022/01/22 11:30 GCLA 221130Z 16006KT 110V210 9999 FEW030 21/16 Q1016
GCRR - Lanzarote
Actualización: 22/01/2022 12:30
Few Clouds
Few Clouds
 Viento del SSO
Viento: SSO 19 km/h
Temperatura: 20°C
Rocío: 17°C
Humedad: 83%
Barómetro: 1017 hPa
Nubosidad: Few Clouds
Visibilidad: 10 km
Cloud details: Few Clouds 762 m
2022/01/22 11:30 GCRR 221130Z 21010KT 170V240 9999 FEW025 20/17 Q1017
GCLP - Las Palmas
Actualización: 22/01/2022 12:30
Few Clouds
Few Clouds
 Viento del ENE
Viento: ENE 11 km/h
Temperatura: 21°C
Rocío: 14°C
Humedad: 64%
Barómetro: 1017 hPa
Nubosidad: Few Clouds
Visibilidad: 10 km
Cloud details: Few Clouds 762 m
2022/01/22 11:30 GCLP 221130Z 06006KT 030V100 9999 FEW025 21/14 Q1017 NOSIG
 
LELN - León
Actualización: 22/01/2022 12:30
Despejado
Despejado
 Viento del ESE
Viento: ESE 6 km/h
Temperatura: 5°C
Rocío: -6°C
Humedad: 45%
Barómetro: 1029 hPa
Resumen: Despejado
Visibilidad: greater than 10 km
2022/01/22 11:30 LELN 221130Z 11003KT 050V140 CAVOK 05/M06 Q1029
LELO - Logroño
Actualización: 22/01/2022 12:30
Despejado
Despejado
 Viento del O
Viento: O 24 km/h
Temperatura: 5°C
Wind Chill: 1°C
Rocío: -1°C
Humedad: 66%
Barómetro: 1031 hPa
Resumen: Despejado
Visibilidad: greater than 10 km
2022/01/22 11:30 LELO 221130Z AUTO 27013KT CAVOK 05/M01 Q1031
LECV - Madrid/Colmenar
Actualización: 22/01/2022 12:30
Mostly Cloudy
Mostly Cloudy
 Viento del varies
Viento: varies 2 km/h
Temperatura: 5°C
Rocío: 1°C
Humedad: 76%
Barómetro: 1029 hPa
Nubosidad: Mostly Cloudy
Visibilidad: 10 km
Cloud details: Mostly Cloudy 457 m
2022/01/22 11:30 LECV 221130Z VRB01KT 9999 BKN015 05/01 Q1029
 
LEMD - Madrid/Barajas
Actualización: 22/01/2022 12:30
Despejado
Despejado
 Viento del varies
Viento: varies 4 km/h
Temperatura: 7°C
Rocío: -1°C
Humedad: 57%
Barómetro: 1030 hPa
Resumen: Despejado
Visibilidad: greater than 10 km
2022/01/22 11:30 LEMD 221130Z VRB02KT CAVOK 07/M01 Q1030 NOSIG
LEVS - Madrid/Cuatro Vientos
Actualización: 22/01/2022 12:30
Mostly Cloudy
Mostly Cloudy
 Viento del varies
Viento: varies 4 km/h
Temperatura: 7°C
Rocío: 0°C
Humedad: 61%
Barómetro: 1030 hPa
Nubosidad: Mostly Cloudy
Visibilidad: 10 km
Cloud details: Mostly Cloudy 884 m
2022/01/22 11:30 LEVS 221130Z VRB02KT 9999 BKN029 07/00 Q1030
LEGT - Madrid/Getafe
Actualización: 22/01/2022 12:30
Mostly Cloudy
Mostly Cloudy
 Viento del NE
Viento: NE 11 km/h
Temperatura: 7°C
Wind Chill: 5°C
Rocío: 0°C
Humedad: 61%
Barómetro: 1030 hPa
Nubosidad: Mostly Cloudy
Visibilidad: 10 km
Cloud details: Mostly Cloudy 792 m
Mostly Cloudy 884 m
2022/01/22 11:30 LEGT 221130Z 04006KT 360V080 9999 BKN026 BKN029 07/00 Q1030
 
LETO - Madrid/Torrejón
Actualización: 22/01/2022 12:30
Despejado
Despejado
 Viento del E
Viento: E 9 km/h
Temperatura: 7°C
Wind Chill: 6°C
Rocío: -1°C
Humedad: 57%
Barómetro: 1030 hPa
Resumen: Despejado
Visibilidad: greater than 10 km
2022/01/22 11:30 LETO 221130Z 08005KT 030V110 CAVOK 07/M01 Q1030 NOSIG
LEMG - Málaga
Actualización: 22/01/2022 12:30
Partly Cloudy
Partly Cloudy
 Viento del E
Viento: E 30 km/h
Temperatura: 16°C
Rocío: 10°C
Humedad: 68%
Barómetro: 1027 hPa
Nubosidad: Partly Cloudy
Visibilidad: 10 km
Cloud details: Partly Cloudy 671 m
2022/01/22 11:30 LEMG 221130Z 10016KT 9999 SCT022 16/10 Q1027 NOSIG
GEML - Melilla
Actualización: 22/01/2022 12:30
Few Clouds
Few Clouds
 Viento del ESE
Viento: ESE 13 km/h
Temperatura: 14°C
Rocío: 7°C
Humedad: 63%
Barómetro: 1027 hPa
Nubosidad: Few Clouds
Visibilidad: 10 km
Cloud details: Few Clouds 610 m
2022/01/22 11:30 GEML 221130Z 12007KT 090V170 9999 FEW020 14/07 Q1027
 
LEMH - Mahón
Actualización: 22/01/2022 12:30
Despejado
Despejado
 Viento del N
Viento: N 22 km/h
Temperatura: 11°C
Rocío: 2°C
Humedad: 54%
Barómetro: 1030 hPa
Resumen: Despejado
Visibilidad: greater than 10 km
2022/01/22 11:30 LEMH 221130Z 36012KT 330V030 CAVOK 11/02 Q1030
LEMO - Morón de La Frontera
Actualización: 22/01/2022 12:30
Despejado
Despejado
 Viento del E
Viento: E 13 km/h
Temperatura: 16°C
Rocío: 5°C
Humedad: 48%
Barómetro: 1024 hPa
Resumen: Despejado
Visibilidad: greater than 10 km
2022/01/22 11:30 LEMO 221130Z 09007KT 050V120 CAVOK 16/05 Q1024 NOSIG
LEMI - Murcia/Corvera
Actualización: 22/01/2022 12:30
Cubierto
Cubierto
 Viento del NE
Viento: NE 17 km/h
Temperatura: 11°C
Rocío: 7°C
Humedad: 77%
Barómetro: 1030 hPa
Nubosidad: Cubierto
Visibilidad: 10 km
Cloud details: Partly Cloudy 305 m
Cubierto 1219 m
2022/01/22 11:30 LEMI 221130Z 04009KT 020V080 9999 SCT010 OVC040 11/07 Q1030
 
LERI - Murcia/Alcantarilla
Actualización: 22/01/2022 12:30
Mist, Cubierto
Mist, Cubierto
 Viento del varies
Viento: varies 2 km/h
Temperatura: 10°C
Rocío: 8°C
Humedad: 88%
Barómetro: 1031 hPa
Resumen: Mist
Nubosidad: Cubierto
Visibilidad: 4 km
Cloud details: Few Clouds 518 m
Cubierto 671 m
2022/01/22 11:30 LERI 221130Z VRB01KT 4000 BR FEW017 OVC022 10/08 Q1031 NOSIG
LELC - Murcia/San Javier
Actualización: 22/01/2022 12:30
Mostly Cloudy
Mostly Cloudy
 Viento del NNO
Viento: NNO 11 km/h
Temperatura: 11°C
Rocío: 10°C
Humedad: 94%
Barómetro: 1030 hPa
Nubosidad: Mostly Cloudy
Visibilidad: 7 km
Cloud details: Partly Cloudy 610 m
Mostly Cloudy 1067 m
2022/01/22 11:30 LELC 221130Z 34006KT 7000 SCT020 BKN035 11/10 Q1030 NOSIG
LEPA - Palma de Mallorca
Actualización: 22/01/2022 12:30
Few Clouds
Few Clouds
 Viento del ENE
Viento: ENE 11 km/h
Temperatura: 12°C
Rocío: 4°C
Humedad: 58%
Barómetro: 1030 hPa
Nubosidad: Few Clouds
Visibilidad: 10 km
Cloud details: Few Clouds 914 m
2022/01/22 11:30 LEPA 221130Z 07006KT 050V120 9999 FEW030 12/04 Q1030 NOSIG
 
LEPP - Pamplona
Actualización: 22/01/2022 12:30
Despejado
Despejado
 Viento del NO
Viento: NO 4 km/h
Temperatura: 6°C
Rocío: -5°C
Humedad: 46%
Barómetro: 1030 hPa
Resumen: Despejado
Visibilidad: greater than 10 km
2022/01/22 11:30 LEPP 221130Z 31002KT CAVOK 06/M05 Q1030
LERS - Reus
Actualización: 22/01/2022 12:30
Few Clouds
Few Clouds
 Viento del varies
Viento: varies 4 km/h
Temperatura: 10°C
Rocío: -2°C
Humedad: 43%
Barómetro: 1031 hPa
Nubosidad: Few Clouds
Visibilidad: 10 km
Cloud details: Few Clouds 1097 m
2022/01/22 11:30 LERS 221130Z VRB02KT 9999 FEW036 10/M02 Q1031
LERT - Rota
Actualización: 22/01/2022 12:30
Despejado
Despejado
 Viento del E
Viento: E 39 km/h
Temperatura: 17°C
Rocío: 8°C
Humedad: 56%
Barómetro: 1024 hPa
Resumen: Despejado
Visibilidad: greater than 10 km
2022/01/22 11:30 LERT 221130Z 10021KT CAVOK 17/08 Q1024 NOSIG
 
LELL - Sabadell
Actualización: 22/01/2022 12:30
Despejado
Despejado
 Viento del O
Viento: O 13 km/h
Temperatura: 8°C
Wind Chill: 6°C
Rocío: -1°C
Humedad: 53%
Barómetro: 1030 hPa
Resumen: Despejado
Visibilidad: greater than 10 km
2022/01/22 11:30 LELL 221130Z 26007KT CAVOK 08/M01 Q1030
LESA - Salamanca
Actualización: 22/01/2022 12:30
Despejado
Despejado
 Viento del E
Viento: E 13 km/h
Temperatura: 2°C
Wind Chill: -1°C
Rocío: -4°C
Humedad: 65%
Barómetro: 1029 hPa
Resumen: Despejado
Visibilidad: greater than 10 km
2022/01/22 11:30 LESA 221130Z 09007KT CAVOK 02/M04 Q1029
LESO - San Sebastián
Actualización: 22/01/2022 12:30
Despejado
Despejado
 Viento del NNE
Viento: NNE 7 km/h
Temperatura: 6°C
Wind Chill: 4°C
Rocío: 1°C
Humedad: 71%
Barómetro: 1034 hPa
Resumen: Despejado
Visibilidad: greater than 10 km
2022/01/22 11:30 LESO 221130Z 02004KT 330V060 CAVOK 06/01 Q1034
 
LEXJ - Santander
Actualización: 22/01/2022 12:30
Partly Cloudy
Partly Cloudy
 Viento del E
Viento: E 15 km/h
Temperatura: 8°C
Wind Chill: 5°C
Rocío: 1°C
Humedad: 62%
Barómetro: 1034 hPa
Nubosidad: Partly Cloudy
Visibilidad: 10 km
Cloud details: Partly Cloudy 914 m
2022/01/22 11:30 LEXJ 221130Z 10008KT 070V130 9999 SCT030 08/01 Q1034
LEPA - Palma de Mallorca
Actualización: 22/01/2022 12:30
Few Clouds
Few Clouds
 Viento del ENE
Viento: ENE 11 km/h
Temperatura: 12°C
Rocío: 4°C
Humedad: 58%
Barómetro: 1030 hPa
Nubosidad: Few Clouds
Visibilidad: 10 km
Cloud details: Few Clouds 914 m
2022/01/22 11:30 LEPA 221130Z 07006KT 050V120 9999 FEW030 12/04 Q1030 NOSIG
LEPP - Pamplona
Actualización: 22/01/2022 12:30
Despejado
Despejado
 Viento del NO
Viento: NO 4 km/h
Temperatura: 6°C
Rocío: -5°C
Humedad: 46%
Barómetro: 1030 hPa
Resumen: Despejado
Visibilidad: greater than 10 km
2022/01/22 11:30 LEPP 221130Z 31002KT CAVOK 06/M05 Q1030
 
LEST - Santiago de Compostela
Actualización: 22/01/2022 12:30
Despejado
Despejado
 Viento del SE
Viento: SE 11 km/h
Temperatura: 5°C
Wind Chill: 2°C
Rocío: -3°C
Humedad: 57%
Barómetro: 1029 hPa
Resumen: Despejado
Visibilidad: greater than 10 km
2022/01/22 11:30 LEST 221130Z 13006KT CAVOK 05/M03 Q1029 NOSIG
LEZL - Sevilla
Actualización: 22/01/2022 12:30
Despejado
Despejado
 Viento del ENE
Viento: ENE 26 km/h
Temperatura: 13°C
Rocío: 3°C
Humedad: 51%
Barómetro: 1025 hPa
Resumen: Despejado
Visibilidad: greater than 10 km
2022/01/22 11:30 LEZL 221130Z 06014KT 030V100 CAVOK 13/03 Q1025 NOSIG
GCXO - Tenerife
Actualización: 22/01/2022 12:30
Partly Cloudy
Partly Cloudy
 Viento del varies
Viento: varies 4 km/h
Temperatura: 15°C
Rocío: 13°C
Humedad: 88%
Barómetro: 1018 hPa
Nubosidad: Partly Cloudy
Visibilidad: 10 km
Cloud details: Few Clouds 183 m
Partly Cloudy 366 m
2022/01/22 11:30 GCXO 221130Z VRB02KT 9999 FEW006 SCT012 15/13 Q1018 NOSIG
 
GCTS - Tenerife-Sur
Actualización: 22/01/2022 12:30
Few Clouds
Few Clouds
 Viento del SSO
Viento: SSO 17 km/h
Temperatura: 21°C
Rocío: 15°C
Humedad: 69%
Barómetro: 1017 hPa
Nubosidad: Few Clouds
Visibilidad: 10 km
Cloud details: Few Clouds 762 m
2022/01/22 11:30 GCTS 221130Z 21009KT 9999 FEW025 21/15 Q1017 NOSIG
LEVC - Valencia
Actualización: 22/01/2022 12:30
Few Clouds
Few Clouds
 Viento del NNE
Viento: NNE 2 km/h
Temperatura: 11°C
Rocío: 3°C
Humedad: 58%
Barómetro: 1031 hPa
Nubosidad: Few Clouds
Visibilidad: 10 km
Cloud details: Few Clouds 762 m
2022/01/22 11:30 LEVC 221130Z 03001KT 9999 FEW025 11/03 Q1031 NOSIG
LEVD - Valladolid
Actualización: 22/01/2022 12:30
Despejado
Despejado
 Viento del E
Viento: E 15 km/h
Temperatura: 3°C
Wind Chill: -1°C
Rocío: -4°C
Humedad: 60%
Barómetro: 1029 hPa
Resumen: Despejado
Visibilidad: greater than 10 km
2022/01/22 11:30 LEVD 221130Z 08008KT CAVOK 03/M04 Q1029
 
LEVX - Vigo
Actualización: 22/01/2022 12:30
Despejado
Despejado
 Viento del S
Viento: S 7 km/h
Temperatura: 8°C
Wind Chill: 7°C
Rocío: -1°C
Humedad: 53%
Barómetro: 1028 hPa
Resumen: Despejado
Visibilidad: greater than 10 km
2022/01/22 11:30 LEVX 221130Z 19004KT 120V250 CAVOK 08/M01 Q1028 NOSIG
LEVT - Vitoria
Actualización: 22/01/2022 12:30
Despejado
Despejado
 Viento del ENE
Viento: ENE 9 km/h
Temperatura: 5°C
Wind Chill: 3°C
Rocío: -3°C
Humedad: 57%
Barómetro: 1031 hPa
Resumen: Despejado
Visibilidad: greater than 10 km
2022/01/22 11:30 LEVT 221130Z 07005KT 050V110 CAVOK 05/M03 Q1031
LEZG - Zaragoza
Actualización: 22/01/2022 12:30
Despejado
Despejado
 Viento del ONO
Viento: ONO 7 km/h
Temperatura: 5°C
Wind Chill: 3°C
Rocío: -3°C
Humedad: 57%
Barómetro: 1032 hPa
Resumen: Despejado
Visibilidad: greater than 10 km
2022/01/22 11:30 LEZG 221130Z 30004KT 260V350 CAVOK 05/M03 Q1032

La estación de MeteoMurcia.com, publica sus datos en los siguientes proyectos:

Weather Underground PWS IMURCIAP2 Meteoclimatic www.awekas.at

W3Counter
Web Analytics